This is the latest recevied weather packets stored in our database for station/object EA4BHK-10. If no packets are shown the sender has not sent any weather packets the latest 10 day(s).
| Time | Temp. | Humidity | Pressure | Rain* | Wind** | Luminosity | Snow |
|---|---|---|---|---|---|---|---|
| 1777170195 | 11.11° C | 71% | 1021.1 hPa | - | - | - | - |
| 1777169595 | 11.11° C | 71% | 1021.1 hPa | - | - | - | - |
| 1777168395 | 11.11° C | 72% | 1021.2 hPa | - | - | - | - |
| 1777167795 | 11.67° C | 70% | 1021 hPa | - | - | - | - |
| 1777166595 | 12.22° C | 71% | 1021 hPa | - | - | - | - |
| 1777165995 | 12.22° C | 72% | 1021 hPa | - | - | - | - |
| 1777164795 | 12.22° C | 70% | 1021 hPa | - | - | - | - |
| 1777164195 | 12.78° C | 70% | 1020.7 hPa | - | - | - | - |
| 1777162995 | 13.33° C | 68% | 1020.6 hPa | - | - | - | - |
| 1777162395 | 13.33° C | 68% | 1020.8 hPa | - | - | - | - |
| 1777161195 | 13.89° C | 67% | 1020.8 hPa | - | - | - | - |
| 1777160595 | 13.89° C | 65% | 1020.8 hPa | - | - | - | - |
| 1777159395 | 13.89° C | 64% | 1020.8 hPa | - | - | - | - |
| 1777158795 | 14.44° C | 63% | 1020.7 hPa | - | - | - | - |
| 1777157595 | 15° C | 62% | 1020.5 hPa | - | - | - | - |
| 1777156995 | 15° C | 62% | 1020.6 hPa | - | - | - | - |
| 1777155795 | 15.56° C | 61% | 1020.6 hPa | - | - | - | - |
| 1777155195 | 15.56° C | 59% | 1020.7 hPa | - | - | - | - |
| 1777153995 | 15.56° C | 57% | 1020.5 hPa | - | - | - | - |
| 1777152195 | 15.56° C | 56% | 1020.2 hPa | - | - | - | - |
| 1777151595 | 16.11° C | 55% | 1020.1 hPa | - | - | - | - |
| 1777148595 | 17.22° C | 49% | 1018.9 hPa | - | - | - | - |
| 1777147995 | 17.78° C | 49% | 1018.7 hPa | - | - | - | - |
| 1777146795 | 17.78° C | 48% | 1018.4 hPa | - | - | - | - |
| 1777146195 | 17.78° C | 47% | 1018.1 hPa | - | - | - | - |
* Rain since midnight (hover to see other rain measurements)
** Current wind speed in m/s (hover to see current wind gust speed)